sensor_id;sensor_type;location;lat;lon;timestamp;P1;durP1;ratioP1;P2;durP2;ratioP2
69392;SDS011;56582;44.624;20.378;2022-11-18T00:02:05;16.27;;;9.80;;
69392;SDS011;56582;44.624;20.378;2022-11-18T00:04:31;14.70;;;9.73;;
69392;SDS011;56582;44.624;20.378;2022-11-18T00:06:56;13.67;;;8.70;;
69392;SDS011;56582;44.624;20.378;2022-11-18T00:09:22;14.97;;;9.77;;
69392;SDS011;56582;44.624;20.378;2022-11-18T00:11:47;15.47;;;9.80;;
69392;SDS011;56582;44.624;20.378;2022-11-18T00:14:31;12.82;;;8.35;;
69392;SDS011;56582;44.624;20.378;2022-11-18T00:17:00;14.30;;;9.60;;
69392;SDS011;56582;44.624;20.378;2022-11-18T00:19:31;13.02;;;8.35;;
69392;SDS011;56582;44.624;20.378;2022-11-18T00:22:02;14.05;;;8.55;;
69392;SDS011;56582;44.624;20.378;2022-11-18T00:24:29;14.48;;;8.40;;
69392;SDS011;56582;44.624;20.378;2022-11-18T00:26:54;13.77;;;8.60;;
69392;SDS011;56582;44.624;20.378;2022-11-18T00:29:20;14.23;;;8.65;;
69392;SDS011;56582;44.624;20.378;2022-11-18T00:31:46;13.87;;;8.53;;
69392;SDS011;56582;44.624;20.378;2022-11-18T00:34:13;14.77;;;9.13;;
69392;SDS011;56582;44.624;20.378;2022-11-18T00:36:40;14.82;;;8.05;;
69392;SDS011;56582;44.624;20.378;2022-11-18T00:39:08;12.82;;;8.80;;
69392;SDS011;56582;44.624;20.378;2022-11-18T00:41:38;13.93;;;8.10;;
69392;SDS011;56582;44.624;20.378;2022-11-18T00:44:21;14.15;;;8.13;;
69392;SDS011;56582;44.624;20.378;2022-11-18T00:46:47;14.67;;;8.77;;
69392;SDS011;56582;44.624;20.378;2022-11-18T00:49:12;14.07;;;8.53;;
69392;SDS011;56582;44.624;20.378;2022-11-18T00:51:38;13.17;;;8.30;;
69392;SDS011;56582;44.624;20.378;2022-11-18T00:54:04;12.98;;;8.05;;
69392;SDS011;56582;44.624;20.378;2022-11-18T00:56:30;13.30;;;8.50;;
69392;SDS011;56582;44.624;20.378;2022-11-18T00:58:55;13.18;;;7.97;;
69392;SDS011;56582;44.624;20.378;2022-11-18T01:01:21;13.37;;;8.47;;
69392;SDS011;56582;44.624;20.378;2022-11-18T01:03:46;12.70;;;8.00;;
69392;SDS011;56582;44.624;20.378;2022-11-18T01:06:12;12.15;;;7.97;;
69392;SDS011;56582;44.624;20.378;2022-11-18T01:08:37;15.27;;;8.43;;
69392;SDS011;56582;44.624;20.378;2022-11-18T01:11:03;13.10;;;8.40;;
69392;SDS011;56582;44.624;20.378;2022-11-18T01:13:50;11.48;;;7.43;;
69392;SDS011;56582;44.624;20.378;2022-11-18T01:16:20;13.77;;;8.95;;
69392;SDS011;56582;44.624;20.378;2022-11-18T01:18:47;12.20;;;8.10;;
69392;SDS011;56582;44.624;20.378;2022-11-18T01:21:13;15.40;;;8.80;;
69392;SDS011;56582;44.624;20.378;2022-11-18T01:23:38;12.05;;;7.53;;
69392;SDS011;56582;44.624;20.378;2022-11-18T01:26:05;11.93;;;7.97;;
69392;SDS011;56582;44.624;20.378;2022-11-18T01:28:36;12.30;;;8.15;;
69392;SDS011;56582;44.624;20.378;2022-11-18T01:31:03;13.73;;;8.57;;
69392;SDS011;56582;44.624;20.378;2022-11-18T01:33:33;11.68;;;6.95;;
69392;SDS011;56582;44.624;20.378;2022-11-18T01:35:58;14.50;;;8.70;;
69392;SDS011;56582;44.624;20.378;2022-11-18T01:38:24;13.60;;;9.27;;
69392;SDS011;56582;44.624;20.378;2022-11-18T01:40:49;14.20;;;8.23;;
69392;SDS011;56582;44.624;20.378;2022-11-18T01:43:16;13.87;;;9.07;;
69392;SDS011;56582;44.624;20.378;2022-11-18T01:45:44;12.63;;;7.82;;
69392;SDS011;56582;44.624;20.378;2022-11-18T01:50:48;11.68;;;8.43;;
69392;SDS011;56582;44.624;20.378;2022-11-18T01:53:21;12.35;;;7.93;;
69392;SDS011;56582;44.624;20.378;2022-11-18T01:55:49;13.35;;;9.25;;
69392;SDS011;56582;44.624;20.378;2022-11-18T01:58:20;11.95;;;7.88;;
69392;SDS011;56582;44.624;20.378;2022-11-18T02:00:49;11.43;;;7.83;;
69392;SDS011;56582;44.624;20.378;2022-11-18T02:03:15;12.70;;;8.38;;
69392;SDS011;56582;44.624;20.378;2022-11-18T02:05:42;12.43;;;7.38;;
69392;SDS011;56582;44.624;20.378;2022-11-18T02:08:10;11.70;;;7.93;;
69392;SDS011;56582;44.624;20.378;2022-11-18T02:10:36;14.15;;;7.88;;
69392;SDS011;56582;44.624;20.378;2022-11-18T02:13:01;12.73;;;7.90;;
69392;SDS011;56582;44.624;20.378;2022-11-18T02:15:37;11.52;;;7.60;;
69392;SDS011;56582;44.624;20.378;2022-11-18T02:21:27;11.70;;;7.30;;
69392;SDS011;56582;44.624;20.378;2022-11-18T02:24:22;12.20;;;7.75;;
69392;SDS011;56582;44.624;20.378;2022-11-18T02:27:05;12.13;;;7.72;;
69392;SDS011;56582;44.624;20.378;2022-11-18T02:29:57;9.98;;;6.80;;
69392;SDS011;56582;44.624;20.378;2022-11-18T02:32:32;10.85;;;7.35;;
69392;SDS011;56582;44.624;20.378;2022-11-18T02:35:08;12.00;;;7.90;;
69392;SDS011;56582;44.624;20.378;2022-11-18T02:37:42;13.35;;;8.30;;
69392;SDS011;56582;44.624;20.378;2022-11-18T02:42:43;12.40;;;7.53;;
69392;SDS011;56582;44.624;20.378;2022-11-18T02:45:16;11.45;;;7.25;;
69392;SDS011;56582;44.624;20.378;2022-11-18T02:47:44;10.73;;;6.80;;
69392;SDS011;56582;44.624;20.378;2022-11-18T02:50:18;11.05;;;6.80;;
69392;SDS011;56582;44.624;20.378;2022-11-18T02:52:48;12.63;;;7.38;;
69392;SDS011;56582;44.624;20.378;2022-11-18T02:55:18;10.63;;;7.53;;
69392;SDS011;56582;44.624;20.378;2022-11-18T02:57:46;11.20;;;8.35;;
69392;SDS011;56582;44.624;20.378;2022-11-18T03:00:12;10.47;;;7.13;;
69392;SDS011;56582;44.624;20.378;2022-11-18T03:02:42;11.65;;;7.97;;
69392;SDS011;56582;44.624;20.378;2022-11-18T03:05:09;10.15;;;7.15;;
69392;SDS011;56582;44.624;20.378;2022-11-18T03:08:02;10.45;;;6.15;;
69392;SDS011;56582;44.624;20.378;2022-11-18T03:10:34;9.50;;;6.60;;
69392;SDS011;56582;44.624;20.378;2022-11-18T03:13:25;11.15;;;6.72;;
69392;SDS011;56582;44.624;20.378;2022-11-18T03:16:05;9.80;;;6.43;;
69392;SDS011;56582;44.624;20.378;2022-11-18T03:18:46;10.70;;;6.53;;
69392;SDS011;56582;44.624;20.378;2022-11-18T03:24:05;10.47;;;6.43;;
69392;SDS011;56582;44.624;20.378;2022-11-18T03:26:38;9.50;;;5.57;;
69392;SDS011;56582;44.624;20.378;2022-11-18T03:29:20;8.85;;;6.80;;
69392;SDS011;56582;44.624;20.378;2022-11-18T03:31:57;9.95;;;6.10;;
69392;SDS011;56582;44.624;20.378;2022-11-18T03:34:28;9.90;;;7.05;;
69392;SDS011;56582;44.624;20.378;2022-11-18T03:36:58;9.90;;;5.90;;
69392;SDS011;56582;44.624;20.378;2022-11-18T03:39:27;9.98;;;6.00;;
69392;SDS011;56582;44.624;20.378;2022-11-18T03:41:55;9.98;;;6.68;;
69392;SDS011;56582;44.624;20.378;2022-11-18T03:44:31;12.40;;;7.13;;
69392;SDS011;56582;44.624;20.378;2022-11-18T03:47:01;10.02;;;6.70;;
69392;SDS011;56582;44.624;20.378;2022-11-18T03:49:39;10.43;;;6.80;;
69392;SDS011;56582;44.624;20.378;2022-11-18T03:52:10;8.65;;;5.90;;
69392;SDS011;56582;44.624;20.378;2022-11-18T03:54:39;8.18;;;5.40;;
69392;SDS011;56582;44.624;20.378;2022-11-18T03:57:13;8.48;;;5.40;;
69392;SDS011;56582;44.624;20.378;2022-11-18T03:59:47;9.00;;;6.25;;
69392;SDS011;56582;44.624;20.378;2022-11-18T04:02:20;9.37;;;5.90;;
69392;SDS011;56582;44.624;20.378;2022-11-18T04:04:48;9.52;;;5.65;;
69392;SDS011;56582;44.624;20.378;2022-11-18T04:07:23;10.63;;;6.43;;
69392;SDS011;56582;44.624;20.378;2022-11-18T04:09:53;8.75;;;5.63;;
69392;SDS011;56582;44.624;20.378;2022-11-18T04:12:22;10.00;;;5.65;;
69392;SDS011;56582;44.624;20.378;2022-11-18T04:14:52;8.07;;;5.10;;
69392;SDS011;56582;44.624;20.378;2022-11-18T04:17:20;9.70;;;6.15;;
69392;SDS011;56582;44.624;20.378;2022-11-18T04:19:47;8.25;;;5.40;;
69392;SDS011;56582;44.624;20.378;2022-11-18T04:22:13;8.50;;;5.53;;
69392;SDS011;56582;44.624;20.378;2022-11-18T04:24:39;9.98;;;6.75;;
69392;SDS011;56582;44.624;20.378;2022-11-18T04:27:04;9.53;;;6.23;;
69392;SDS011;56582;44.624;20.378;2022-11-18T04:29:30;12.20;;;6.10;;
69392;SDS011;56582;44.624;20.378;2022-11-18T04:31:57;10.52;;;5.03;;
69392;SDS011;56582;44.624;20.378;2022-11-18T04:34:23;11.27;;;6.85;;
69392;SDS011;56582;44.624;20.378;2022-11-18T04:36:49;10.27;;;6.23;;
69392;SDS011;56582;44.624;20.378;2022-11-18T04:39:15;8.63;;;5.63;;
69392;SDS011;56582;44.624;20.378;2022-11-18T04:41:42;12.13;;;6.72;;
69392;SDS011;56582;44.624;20.378;2022-11-18T04:44:20;9.85;;;6.25;;
69392;SDS011;56582;44.624;20.378;2022-11-18T04:46:46;18.60;;;10.83;;
69392;SDS011;56582;44.624;20.378;2022-11-18T04:49:13;13.57;;;9.95;;
69392;SDS011;56582;44.624;20.378;2022-11-18T04:51:42;261.20;;;16.73;;
69392;SDS011;56582;44.624;20.378;2022-11-18T04:54:09;63.28;;;9.77;;
69392;SDS011;56582;44.624;20.378;2022-11-18T04:56:35;10.98;;;7.03;;
69392;SDS011;56582;44.624;20.378;2022-11-18T04:59:01;8.13;;;5.17;;
69392;SDS011;56582;44.624;20.378;2022-11-18T05:01:28;10.15;;;5.38;;
69392;SDS011;56582;44.624;20.378;2022-11-18T05:03:54;9.32;;;6.03;;
69392;SDS011;56582;44.624;20.378;2022-11-18T05:06:20;7.57;;;4.75;;
69392;SDS011;56582;44.624;20.378;2022-11-18T05:08:46;7.33;;;5.13;;
69392;SDS011;56582;44.624;20.378;2022-11-18T05:11:11;7.87;;;4.70;;
69392;SDS011;56582;44.624;20.378;2022-11-18T05:13:55;7.95;;;5.22;;
69392;SDS011;56582;44.624;20.378;2022-11-18T05:16:21;7.83;;;5.70;;
69392;SDS011;56582;44.624;20.378;2022-11-18T05:18:46;9.23;;;4.90;;
69392;SDS011;56582;44.624;20.378;2022-11-18T05:21:12;8.67;;;5.87;;
69392;SDS011;56582;44.624;20.378;2022-11-18T05:23:37;9.57;;;5.80;;
69392;SDS011;56582;44.624;20.378;2022-11-18T05:26:03;7.60;;;5.37;;
69392;SDS011;56582;44.624;20.378;2022-11-18T05:28:29;8.85;;;5.78;;
69392;SDS011;56582;44.624;20.378;2022-11-18T05:30:55;11.50;;;7.07;;
69392;SDS011;56582;44.624;20.378;2022-11-18T05:33:20;8.33;;;5.30;;
69392;SDS011;56582;44.624;20.378;2022-11-18T05:35:46;8.57;;;5.22;;
69392;SDS011;56582;44.624;20.378;2022-11-18T05:38:11;11.23;;;5.83;;
69392;SDS011;56582;44.624;20.378;2022-11-18T05:40:37;8.70;;;5.63;;
69392;SDS011;56582;44.624;20.378;2022-11-18T05:43:02;8.27;;;5.70;;
69392;SDS011;56582;44.624;20.378;2022-11-18T05:45:37;6.83;;;4.53;;
69392;SDS011;56582;44.624;20.378;2022-11-18T05:48:04;13.15;;;5.40;;
69392;SDS011;56582;44.624;20.378;2022-11-18T05:50:31;7.75;;;5.97;;
69392;SDS011;56582;44.624;20.378;2022-11-18T05:52:58;7.43;;;5.57;;
69392;SDS011;56582;44.624;20.378;2022-11-18T05:55:31;10.97;;;5.90;;
69392;SDS011;56582;44.624;20.378;2022-11-18T05:58:00;7.68;;;4.43;;
69392;SDS011;56582;44.624;20.378;2022-11-18T06:00:25;8.07;;;5.33;;
69392;SDS011;56582;44.624;20.378;2022-11-18T06:02:51;7.82;;;5.07;;
69392;SDS011;56582;44.624;20.378;2022-11-18T06:05:19;11.88;;;5.72;;
69392;SDS011;56582;44.624;20.378;2022-11-18T06:07:45;7.70;;;5.63;;
69392;SDS011;56582;44.624;20.378;2022-11-18T06:10:12;8.68;;;5.45;;
69392;SDS011;56582;44.624;20.378;2022-11-18T06:12:42;9.37;;;4.33;;
69392;SDS011;56582;44.624;20.378;2022-11-18T06:17:47;20.92;;;14.15;;
69392;SDS011;56582;44.624;20.378;2022-11-18T06:20:17;15.82;;;11.65;;
69392;SDS011;56582;44.624;20.378;2022-11-18T06:22:43;8.30;;;5.82;;
69392;SDS011;56582;44.624;20.378;2022-11-18T06:25:09;8.60;;;4.90;;
69392;SDS011;56582;44.624;20.378;2022-11-18T06:27:34;7.23;;;4.97;;
69392;SDS011;56582;44.624;20.378;2022-11-18T06:30:00;8.93;;;6.07;;
69392;SDS011;56582;44.624;20.378;2022-11-18T06:32:26;11.50;;;7.03;;
69392;SDS011;56582;44.624;20.378;2022-11-18T06:34:51;10.20;;;7.03;;
69392;SDS011;56582;44.624;20.378;2022-11-18T06:37:17;9.60;;;6.32;;
69392;SDS011;56582;44.624;20.378;2022-11-18T06:39:47;7.87;;;5.77;;
69392;SDS011;56582;44.624;20.378;2022-11-18T06:42:12;11.85;;;6.70;;
69392;SDS011;56582;44.624;20.378;2022-11-18T06:44:58;10.40;;;5.43;;
69392;SDS011;56582;44.624;20.378;2022-11-18T06:47:23;10.90;;;5.90;;
69392;SDS011;56582;44.624;20.378;2022-11-18T06:49:49;8.83;;;6.00;;
69392;SDS011;56582;44.624;20.378;2022-11-18T06:52:14;9.80;;;7.23;;
69392;SDS011;56582;44.624;20.378;2022-11-18T06:54:40;8.83;;;6.07;;
69392;SDS011;56582;44.624;20.378;2022-11-18T06:57:05;8.77;;;6.18;;
69392;SDS011;56582;44.624;20.378;2022-11-18T06:59:30;8.90;;;5.43;;
69392;SDS011;56582;44.624;20.378;2022-11-18T07:01:56;9.07;;;5.57;;
69392;SDS011;56582;44.624;20.378;2022-11-18T07:04:21;8.77;;;5.03;;
69392;SDS011;56582;44.624;20.378;2022-11-18T07:06:47;8.85;;;6.00;;
69392;SDS011;56582;44.624;20.378;2022-11-18T07:09:13;7.63;;;5.17;;
69392;SDS011;56582;44.624;20.378;2022-11-18T07:11:38;8.77;;;5.30;;
69392;SDS011;56582;44.624;20.378;2022-11-18T07:14:05;8.77;;;5.40;;
69392;SDS011;56582;44.624;20.378;2022-11-18T07:16:33;8.55;;;5.95;;
69392;SDS011;56582;44.624;20.378;2022-11-18T07:19:00;9.32;;;5.38;;
69392;SDS011;56582;44.624;20.378;2022-11-18T07:21:26;9.00;;;5.43;;
69392;SDS011;56582;44.624;20.378;2022-11-18T07:23:53;8.77;;;7.50;;
69392;SDS011;56582;44.624;20.378;2022-11-18T07:26:19;8.63;;;5.88;;
69392;SDS011;56582;44.624;20.378;2022-11-18T07:28:45;10.45;;;7.18;;
69392;SDS011;56582;44.624;20.378;2022-11-18T07:31:12;11.27;;;7.83;;
69392;SDS011;56582;44.624;20.378;2022-11-18T07:33:39;8.63;;;6.50;;
69392;SDS011;56582;44.624;20.378;2022-11-18T07:36:07;7.53;;;5.43;;
69392;SDS011;56582;44.624;20.378;2022-11-18T07:38:37;7.40;;;4.90;;
69392;SDS011;56582;44.624;20.378;2022-11-18T07:41:07;7.45;;;5.13;;
69392;SDS011;56582;44.624;20.378;2022-11-18T07:43:34;8.00;;;4.32;;
69392;SDS011;56582;44.624;20.378;2022-11-18T07:46:14;8.70;;;4.95;;
69392;SDS011;56582;44.624;20.378;2022-11-18T07:48:40;8.63;;;5.50;;
69392;SDS011;56582;44.624;20.378;2022-11-18T07:51:07;9.93;;;6.20;;
69392;SDS011;56582;44.624;20.378;2022-11-18T07:53:33;12.77;;;8.73;;
69392;SDS011;56582;44.624;20.378;2022-11-18T07:55:59;11.30;;;7.20;;
69392;SDS011;56582;44.624;20.378;2022-11-18T07:58:25;10.10;;;6.57;;
69392;SDS011;56582;44.624;20.378;2022-11-18T08:00:51;12.87;;;9.10;;
69392;SDS011;56582;44.624;20.378;2022-11-18T08:03:16;9.73;;;7.30;;
69392;SDS011;56582;44.624;20.378;2022-11-18T08:05:42;14.77;;;10.97;;
69392;SDS011;56582;44.624;20.378;2022-11-18T08:08:07;23.70;;;16.13;;
69392;SDS011;56582;44.624;20.378;2022-11-18T08:10:32;22.23;;;14.70;;
69392;SDS011;56582;44.624;20.378;2022-11-18T08:12:58;22.67;;;16.50;;
69392;SDS011;56582;44.624;20.378;2022-11-18T08:15:23;8.93;;;5.63;;
69392;SDS011;56582;44.624;20.378;2022-11-18T08:17:49;8.52;;;5.25;;
69392;SDS011;56582;44.624;20.378;2022-11-18T08:20:15;9.00;;;5.30;;
69392;SDS011;56582;44.624;20.378;2022-11-18T08:22:41;8.15;;;5.05;;
69392;SDS011;56582;44.624;20.378;2022-11-18T08:25:06;9.37;;;5.77;;
69392;SDS011;56582;44.624;20.378;2022-11-18T08:27:32;8.07;;;5.47;;
69392;SDS011;56582;44.624;20.378;2022-11-18T08:29:58;8.97;;;6.23;;
69392;SDS011;56582;44.624;20.378;2022-11-18T08:32:23;7.17;;;5.00;;
69392;SDS011;56582;44.624;20.378;2022-11-18T08:34:49;12.57;;;9.97;;
69392;SDS011;56582;44.624;20.378;2022-11-18T08:37:15;10.10;;;7.13;;
69392;SDS011;56582;44.624;20.378;2022-11-18T08:39:40;8.93;;;6.05;;
69392;SDS011;56582;44.624;20.378;2022-11-18T08:42:07;13.93;;;9.23;;
69392;SDS011;56582;44.624;20.378;2022-11-18T08:44:33;11.95;;;9.27;;
69392;SDS011;56582;44.624;20.378;2022-11-18T08:46:59;9.63;;;6.33;;
69392;SDS011;56582;44.624;20.378;2022-11-18T08:49:24;7.10;;;5.18;;
69392;SDS011;56582;44.624;20.378;2022-11-18T08:51:50;7.10;;;5.07;;
69392;SDS011;56582;44.624;20.378;2022-11-18T08:54:15;6.87;;;4.30;;
69392;SDS011;56582;44.624;20.378;2022-11-18T08:56:41;7.32;;;4.32;;
69392;SDS011;56582;44.624;20.378;2022-11-18T08:59:07;6.10;;;4.60;;
69392;SDS011;56582;44.624;20.378;2022-11-18T09:01:34;9.38;;;4.63;;
69392;SDS011;56582;44.624;20.378;2022-11-18T09:04:00;12.02;;;7.95;;
69392;SDS011;56582;44.624;20.378;2022-11-18T09:06:26;14.33;;;8.97;;
69392;SDS011;56582;44.624;20.378;2022-11-18T09:08:51;15.93;;;10.27;;
69392;SDS011;56582;44.624;20.378;2022-11-18T09:11:18;15.50;;;7.53;;
69392;SDS011;56582;44.624;20.378;2022-11-18T09:13:55;28.60;;;18.67;;
69392;SDS011;56582;44.624;20.378;2022-11-18T09:16:26;18.98;;;10.95;;
69392;SDS011;56582;44.624;20.378;2022-11-18T09:18:53;20.77;;;12.63;;
69392;SDS011;56582;44.624;20.378;2022-11-18T09:21:20;11.48;;;6.80;;
69392;SDS011;56582;44.624;20.378;2022-11-18T09:23:45;12.03;;;6.77;;
69392;SDS011;56582;44.624;20.378;2022-11-18T09:26:12;12.48;;;7.35;;
69392;SDS011;56582;44.624;20.378;2022-11-18T09:28:39;13.13;;;7.05;;
69392;SDS011;56582;44.624;20.378;2022-11-18T09:31:05;21.60;;;12.77;;
69392;SDS011;56582;44.624;20.378;2022-11-18T09:33:33;27.55;;;13.95;;
69392;SDS011;56582;44.624;20.378;2022-11-18T09:35:59;21.75;;;11.60;;
69392;SDS011;56582;44.624;20.378;2022-11-18T09:38:24;21.43;;;11.43;;
69392;SDS011;56582;44.624;20.378;2022-11-18T09:49:15;11.40;;;7.80;;
69392;SDS011;56582;44.624;20.378;2022-11-18T09:51:49;12.13;;;7.03;;
69392;SDS011;56582;44.624;20.378;2022-11-18T09:54:20;13.70;;;7.03;;
69392;SDS011;56582;44.624;20.378;2022-11-18T09:56:49;16.73;;;9.55;;
69392;SDS011;56582;44.624;20.378;2022-11-18T09:59:17;8.95;;;6.00;;
69392;SDS011;56582;44.624;20.378;2022-11-18T10:01:45;10.32;;;5.57;;
69392;SDS011;56582;44.624;20.378;2022-11-18T10:04:15;11.38;;;6.70;;
69392;SDS011;56582;44.624;20.378;2022-11-18T10:06:43;13.50;;;5.50;;
69392;SDS011;56582;44.624;20.378;2022-11-18T10:09:17;51.17;;;28.08;;
69392;SDS011;56582;44.624;20.378;2022-11-18T10:18:04;7.90;;;4.85;;
69392;SDS011;56582;44.624;20.378;2022-11-18T10:23:29;7.93;;;4.93;;
69392;SDS011;56582;44.624;20.378;2022-11-18T10:25:59;8.60;;;5.60;;
69392;SDS011;56582;44.624;20.378;2022-11-18T10:28:26;10.50;;;6.13;;
69392;SDS011;56582;44.624;20.378;2022-11-18T10:30:54;8.57;;;5.90;;
69392;SDS011;56582;44.624;20.378;2022-11-18T10:33:29;9.35;;;6.10;;
69392;SDS011;56582;44.624;20.378;2022-11-18T10:36:13;9.43;;;6.80;;
69392;SDS011;56582;44.624;20.378;2022-11-18T10:38:49;11.77;;;7.70;;
69392;SDS011;56582;44.624;20.378;2022-11-18T10:41:31;11.90;;;7.72;;
69392;SDS011;56582;44.624;20.378;2022-11-18T10:44:03;11.35;;;7.35;;
69392;SDS011;56582;44.624;20.378;2022-11-18T10:46:32;10.90;;;7.43;;
69392;SDS011;56582;44.624;20.378;2022-11-18T10:49:17;14.27;;;8.00;;
69392;SDS011;56582;44.624;20.378;2022-11-18T10:51:47;13.02;;;7.75;;
69392;SDS011;56582;44.624;20.378;2022-11-18T10:54:28;11.85;;;7.10;;
69392;SDS011;56582;44.624;20.378;2022-11-18T11:02:13;13.63;;;8.03;;
69392;SDS011;56582;44.624;20.378;2022-11-18T11:04:46;16.08;;;9.48;;
69392;SDS011;56582;44.624;20.378;2022-11-18T11:07:19;14.73;;;8.80;;
69392;SDS011;56582;44.624;20.378;2022-11-18T11:12:41;12.70;;;8.07;;
69392;SDS011;56582;44.624;20.378;2022-11-18T11:15:21;15.57;;;10.43;;
69392;SDS011;56582;44.624;20.378;2022-11-18T11:17:58;12.65;;;8.25;;
69392;SDS011;56582;44.624;20.378;2022-11-18T11:20:45;10.15;;;6.55;;
69392;SDS011;56582;44.624;20.378;2022-11-18T11:23:11;13.80;;;8.57;;
69392;SDS011;56582;44.624;20.378;2022-11-18T11:25:42;15.32;;;10.52;;
69392;SDS011;56582;44.624;20.378;2022-11-18T11:31:13;24.60;;;16.23;;
69392;SDS011;56582;44.624;20.378;2022-11-18T11:33:50;19.55;;;12.82;;
69392;SDS011;56582;44.624;20.378;2022-11-18T11:50:27;11.55;;;7.60;;
69392;SDS011;56582;44.624;20.378;2022-11-18T11:53:19;13.30;;;8.23;;
69392;SDS011;56582;44.624;20.378;2022-11-18T12:04:42;10.95;;;7.95;;
69392;SDS011;56582;44.624;20.378;2022-11-18T12:07:25;9.85;;;7.07;;
69392;SDS011;56582;44.624;20.378;2022-11-18T12:12:30;12.30;;;7.35;;
69392;SDS011;56582;44.624;20.378;2022-11-18T12:23:11;11.07;;;5.77;;
69392;SDS011;56582;44.624;20.378;2022-11-18T12:26:10;12.57;;;6.55;;
69392;SDS011;56582;44.624;20.378;2022-11-18T12:38:49;12.15;;;7.95;;
69392;SDS011;56582;44.624;20.378;2022-11-18T12:44:27;10.15;;;6.10;;
69392;SDS011;56582;44.624;20.378;2022-11-18T12:46:54;8.52;;;6.30;;
69392;SDS011;56582;44.624;20.378;2022-11-18T12:51:50;12.27;;;6.70;;
69392;SDS011;56582;44.624;20.378;2022-11-18T12:59:39;11.77;;;8.38;;
69392;SDS011;56582;44.624;20.378;2022-11-18T13:02:13;12.57;;;7.60;;
69392;SDS011;56582;44.624;20.378;2022-11-18T13:04:40;10.93;;;7.80;;
69392;SDS011;56582;44.624;20.378;2022-11-18T13:07:08;11.60;;;7.60;;
69392;SDS011;56582;44.624;20.378;2022-11-18T13:09:56;11.75;;;7.20;;
69392;SDS011;56582;44.624;20.378;2022-11-18T13:12:24;12.05;;;6.88;;
69392;SDS011;56582;44.624;20.378;2022-11-18T13:14:53;11.13;;;6.45;;
69392;SDS011;56582;44.624;20.378;2022-11-18T13:17:39;12.95;;;6.60;;
69392;SDS011;56582;44.624;20.378;2022-11-18T13:23:14;9.15;;;5.53;;
69392;SDS011;56582;44.624;20.378;2022-11-18T13:31:47;9.45;;;6.22;;
69392;SDS011;56582;44.624;20.378;2022-11-18T13:34:17;9.90;;;7.23;;
69392;SDS011;56582;44.624;20.378;2022-11-18T13:36:45;9.07;;;6.10;;
69392;SDS011;56582;44.624;20.378;2022-11-18T13:44:31;9.90;;;5.50;;
69392;SDS011;56582;44.624;20.378;2022-11-18T13:52:46;10.90;;;6.47;;
69392;SDS011;56582;44.624;20.378;2022-11-18T13:55:24;9.35;;;6.82;;
69392;SDS011;56582;44.624;20.378;2022-11-18T14:00:40;13.33;;;7.20;;
69392;SDS011;56582;44.624;20.378;2022-11-18T14:03:17;10.00;;;6.72;;
69392;SDS011;56582;44.624;20.378;2022-11-18T14:05:51;11.70;;;6.63;;
69392;SDS011;56582;44.624;20.378;2022-11-18T14:09:01;11.23;;;6.82;;
69392;SDS011;56582;44.624;20.378;2022-11-18T14:11:10;11.35;;;7.40;;
69392;SDS011;56582;44.624;20.378;2022-11-18T14:13:48;13.70;;;7.70;;
69392;SDS011;56582;44.624;20.378;2022-11-18T14:18:44;12.90;;;8.40;;
69392;SDS011;56582;44.624;20.378;2022-11-18T14:21:12;11.77;;;6.88;;
69392;SDS011;56582;44.624;20.378;2022-11-18T14:23:40;11.38;;;7.10;;
69392;SDS011;56582;44.624;20.378;2022-11-18T14:26:07;11.63;;;6.93;;
69392;SDS011;56582;44.624;20.378;2022-11-18T14:28:33;12.95;;;8.20;;
69392;SDS011;56582;44.624;20.378;2022-11-18T14:33:30;13.77;;;7.35;;
69392;SDS011;56582;44.624;20.378;2022-11-18T14:38:30;15.30;;;8.85;;
69392;SDS011;56582;44.624;20.378;2022-11-18T14:41:00;13.23;;;8.30;;
69392;SDS011;56582;44.624;20.378;2022-11-18T14:43:27;13.70;;;8.15;;
69392;SDS011;56582;44.624;20.378;2022-11-18T14:45:56;16.55;;;7.57;;
69392;SDS011;56582;44.624;20.378;2022-11-18T14:48:26;17.97;;;9.40;;
69392;SDS011;56582;44.624;20.378;2022-11-18T14:50:52;27.48;;;17.13;;
69392;SDS011;56582;44.624;20.378;2022-11-18T14:53:18;33.75;;;20.98;;
69392;SDS011;56582;44.624;20.378;2022-11-18T14:55:44;31.17;;;21.57;;
69392;SDS011;56582;44.624;20.378;2022-11-18T14:58:13;34.50;;;21.30;;
69392;SDS011;56582;44.624;20.378;2022-11-18T15:00:42;47.75;;;27.38;;
69392;SDS011;56582;44.624;20.378;2022-11-18T15:03:10;42.47;;;26.23;;
69392;SDS011;56582;44.624;20.378;2022-11-18T15:05:35;46.93;;;28.93;;
69392;SDS011;56582;44.624;20.378;2022-11-18T15:08:01;42.13;;;26.87;;
69392;SDS011;56582;44.624;20.378;2022-11-18T15:10:27;34.85;;;18.75;;
69392;SDS011;56582;44.624;20.378;2022-11-18T15:12:52;39.57;;;23.13;;
69392;SDS011;56582;44.624;20.378;2022-11-18T15:15:18;38.30;;;22.33;;
69392;SDS011;56582;44.624;20.378;2022-11-18T15:17:43;43.17;;;25.70;;
69392;SDS011;56582;44.624;20.378;2022-11-18T15:20:12;44.97;;;23.97;;
69392;SDS011;56582;44.624;20.378;2022-11-18T15:22:40;48.30;;;30.23;;
69392;SDS011;56582;44.624;20.378;2022-11-18T15:25:06;33.23;;;20.77;;
69392;SDS011;56582;44.624;20.378;2022-11-18T15:27:32;34.58;;;21.15;;
69392;SDS011;56582;44.624;20.378;2022-11-18T15:29:58;40.57;;;22.30;;
69392;SDS011;56582;44.624;20.378;2022-11-18T15:32:23;26.40;;;16.77;;
69392;SDS011;56582;44.624;20.378;2022-11-18T15:34:49;24.33;;;14.67;;
69392;SDS011;56582;44.624;20.378;2022-11-18T15:37:14;31.10;;;16.87;;
69392;SDS011;56582;44.624;20.378;2022-11-18T15:39:40;25.38;;;15.23;;
69392;SDS011;56582;44.624;20.378;2022-11-18T15:42:05;30.67;;;16.57;;
69392;SDS011;56582;44.624;20.378;2022-11-18T15:44:30;31.40;;;19.30;;
69392;SDS011;56582;44.624;20.378;2022-11-18T15:46:56;37.23;;;20.17;;
69392;SDS011;56582;44.624;20.378;2022-11-18T15:49:24;29.25;;;17.63;;
69392;SDS011;56582;44.624;20.378;2022-11-18T15:51:49;23.98;;;14.52;;
69392;SDS011;56582;44.624;20.378;2022-11-18T15:54:15;23.63;;;14.33;;
69392;SDS011;56582;44.624;20.378;2022-11-18T15:56:40;23.17;;;13.05;;
69392;SDS011;56582;44.624;20.378;2022-11-18T15:59:08;28.83;;;17.73;;
69392;SDS011;56582;44.624;20.378;2022-11-18T16:01:39;21.35;;;13.48;;
69392;SDS011;56582;44.624;20.378;2022-11-18T16:04:06;35.27;;;17.37;;
69392;SDS011;56582;44.624;20.378;2022-11-18T16:06:34;21.90;;;13.07;;
69392;SDS011;56582;44.624;20.378;2022-11-18T16:09:00;30.52;;;19.23;;
69392;SDS011;56582;44.624;20.378;2022-11-18T16:11:25;31.67;;;17.33;;
69392;SDS011;56582;44.624;20.378;2022-11-18T16:14:11;22.35;;;12.52;;
69392;SDS011;56582;44.624;20.378;2022-11-18T16:16:39;30.17;;;15.13;;
69392;SDS011;56582;44.624;20.378;2022-11-18T16:19:06;36.80;;;18.17;;
69392;SDS011;56582;44.624;20.378;2022-11-18T16:21:34;40.58;;;20.40;;
69392;SDS011;56582;44.624;20.378;2022-11-18T16:24:01;71.30;;;29.77;;
69392;SDS011;56582;44.624;20.378;2022-11-18T16:26:28;53.53;;;23.65;;
69392;SDS011;56582;44.624;20.378;2022-11-18T16:28:57;59.88;;;28.55;;
69392;SDS011;56582;44.624;20.378;2022-11-18T16:31:23;59.17;;;27.73;;
69392;SDS011;56582;44.624;20.378;2022-11-18T16:34:13;47.10;;;26.98;;
69392;SDS011;56582;44.624;20.378;2022-11-18T16:36:44;49.73;;;27.10;;
69392;SDS011;56582;44.624;20.378;2022-11-18T16:39:14;34.35;;;18.95;;
69392;SDS011;56582;44.624;20.378;2022-11-18T16:41:44;61.80;;;30.67;;
69392;SDS011;56582;44.624;20.378;2022-11-18T16:44:13;65.93;;;31.33;;